RYR636Q EGBB-LIRP
Flight info
| Callsign | RYR636Q |
|---|---|
| Flight time | 1h 56m |
| Altitude | 21000 |
| Route | ADMEX Y321 EMKUK L612 COWLY/N0393F230 L612 MID/N0446F330 UL612 BENBO/N0447F370 UL612 OGULO DCT OKASI DCT OKEKO DCT MOU DCT MADIV DCT MOKIP DCT TUFTA DCT GEVEA/N0446F330 DCT MOBLO DCT LURAG DCT OBUXA DCT NEDED DCT LAGEN DCT UNITA L50 KONER |
| Aircraft | B738/M-SADFGHIJ7LP2RWXY/SB1D1G1 |
Departure
| Time | 2026-04-24 08:05 |
|---|---|
| Airport | Birmingham Airport (EGBB) |
Arrival
| Time | 2026-04-24 10:02 |
|---|---|
| Airport | Pisa International Airport (LIRP) |
| Time | Latitude | Longitude | Altitude | Speed | Heading |
|---|---|---|---|---|---|
| 2026-04-24 07:41 | 52.45173 | -1.73742 | 321 ft | 0 kts | 326° |
| 2026-04-24 07:41 | 52.45176 | -1.73746 | 321 ft | 0 kts | 326° |
| 2026-04-24 07:57 | 52.45166 | -1.73734 | 319 ft | 4 kts | 326° |
| 2026-04-24 07:57 | 52.45147 | -1.73714 | 319 ft | 4 kts | 322° |
| 2026-04-24 07:57 | 52.45131 | -1.73683 | 320 ft | 4 kts | 281° |
| 2026-04-24 07:58 | 52.45133 | -1.73643 | 319 ft | 4 kts | 242° |
| 2026-04-24 07:58 | 52.45135 | -1.73638 | 320 ft | 4 kts | 236° |
| 2026-04-24 07:58 | 52.45123 | -1.73665 | 319 ft | 0 kts | 236° |
| 2026-04-24 08:00 | 52.45123 | -1.73667 | 322 ft | 1 kts | 236° |
| 2026-04-24 08:01 | 52.45110 | -1.73697 | 321 ft | 6 kts | 236° |
| 2026-04-24 08:01 | 52.45113 | -1.73783 | 321 ft | 10 kts | 313° |
| 2026-04-24 08:01 | 52.45179 | -1.73861 | 322 ft | 13 kts | 326° |
| 2026-04-24 08:01 | 52.45262 | -1.73953 | 322 ft | 16 kts | 326° |
| 2026-04-24 08:02 | 52.45330 | -1.74100 | 321 ft | 18 kts | 297° |
| 2026-04-24 08:02 | 52.45389 | -1.74291 | 321 ft | 20 kts | 297° |
| 2026-04-24 08:02 | 52.45453 | -1.74502 | 322 ft | 21 kts | 298° |
| 2026-04-24 08:02 | 52.45557 | -1.74665 | 321 ft | 21 kts | 326° |
| 2026-04-24 08:03 | 52.45686 | -1.74808 | 313 ft | 24 kts | 326° |
| 2026-04-24 08:03 | 52.45829 | -1.74966 | 308 ft | 25 kts | 326° |
| 2026-04-24 08:03 | 52.45968 | -1.75121 | 304 ft | 23 kts | 326° |
| 2026-04-24 08:03 | 52.46099 | -1.75266 | 303 ft | 22 kts | 326° |
| 2026-04-24 08:04 | 52.46210 | -1.75397 | 301 ft | 12 kts | 303° |
| 2026-04-24 08:04 | 52.46193 | -1.75520 | 307 ft | 12 kts | 239° |
| 2026-04-24 08:04 | 52.46133 | -1.75618 | 308 ft | 16 kts | 179° |
| 2026-04-24 08:04 | 52.45928 | -1.75405 | 314 ft | 67 kts | 146° |
| 2026-04-24 08:05 | 52.45345 | -1.74755 | 323 ft | 133 kts | 146° |
| 2026-04-24 08:05 | 52.44445 | -1.73784 | 598 ft | 162 kts | 146° |
| 2026-04-24 08:05 | 52.43509 | -1.72775 | 1475 ft | 161 kts | 144° |
| 2026-04-24 08:05 | 52.42580 | -1.71727 | 2171 ft | 175 kts | 143° |
| 2026-04-24 08:06 | 52.41489 | -1.70486 | 2557 ft | 201 kts | 145° |
| 2026-04-24 08:06 | 52.40149 | -1.69659 | 3162 ft | 212 kts | 165° |
| 2026-04-24 08:06 | 52.38688 | -1.69114 | 3939 ft | 217 kts | 164° |
| 2026-04-24 08:06 | 52.37272 | -1.68317 | 4817 ft | 215 kts | 151° |
| 2026-04-24 08:07 | 52.35932 | -1.67185 | 5622 ft | 219 kts | 151° |
| 2026-04-24 08:07 | 52.34577 | -1.65952 | 6285 ft | 231 kts | 146° |
| 2026-04-24 08:07 | 52.33139 | -1.64441 | 6578 ft | 259 kts | 145° |
| 2026-04-24 08:07 | 52.31598 | -1.62806 | 7263 ft | 268 kts | 145° |
| 2026-04-24 08:08 | 52.30013 | -1.61146 | 8081 ft | 273 kts | 145° |
| 2026-04-24 08:08 | 52.28401 | -1.59474 | 8925 ft | 277 kts | 145° |
| 2026-04-24 08:08 | 52.26762 | -1.57782 | 9779 ft | 279 kts | 145° |
| 2026-04-24 08:09 | 52.23345 | -1.54597 | 11205 ft | 297 kts | 148° |
| 2026-04-24 08:09 | 52.21475 | -1.52852 | 11391 ft | 322 kts | 147° |
| 2026-04-24 08:09 | 52.19478 | -1.50953 | 11733 ft | 340 kts | 148° |
| 2026-04-24 08:09 | 52.17415 | -1.48993 | 12417 ft | 346 kts | 148° |
| 2026-04-24 08:10 | 52.15327 | -1.47019 | 13187 ft | 349 kts | 148° |
| 2026-04-24 08:10 | 52.13207 | -1.45025 | 13914 ft | 354 kts | 149° |
| 2026-04-24 08:10 | 52.11071 | -1.43023 | 14678 ft | 356 kts | 149° |
| 2026-04-24 08:10 | 52.08919 | -1.41011 | 15427 ft | 358 kts | 149° |
| 2026-04-24 08:11 | 52.06751 | -1.38989 | 16128 ft | 361 kts | 150° |
| 2026-04-24 08:11 | 52.04556 | -1.36946 | 16811 ft | 365 kts | 150° |
| 2026-04-24 08:11 | 52.02353 | -1.34899 | 17542 ft | 366 kts | 150° |
| 2026-04-24 08:11 | 52.00140 | -1.32845 | 18306 ft | 367 kts | 150° |
| 2026-04-24 08:12 | 51.97912 | -1.30780 | 18920 ft | 371 kts | 151° |
| 2026-04-24 08:12 | 51.95661 | -1.28697 | 19511 ft | 374 kts | 151° |
| 2026-04-24 08:12 | 51.93395 | -1.26601 | 20117 ft | 376 kts | 151° |
| 2026-04-24 08:12 | 51.91119 | -1.24499 | 20721 ft | 378 kts | 151° |
| 2026-04-24 08:13 | 51.88824 | -1.22382 | 21309 ft | 381 kts | 151° |
| 2026-04-24 08:13 | 51.86513 | -1.20252 | 21885 ft | 384 kts | 151° |
| 2026-04-24 08:13 | 51.84185 | -1.18109 | 22437 ft | 386 kts | 151° |
| 2026-04-24 08:13 | 51.81840 | -1.15954 | 23007 ft | 389 kts | 151° |
| 2026-04-24 08:14 | 51.79479 | -1.13786 | 23568 ft | 391 kts | 152° |
| 2026-04-24 08:14 | 51.77108 | -1.11611 | 24118 ft | 393 kts | 152° |
| 2026-04-24 08:14 | 51.74716 | -1.09421 | 24484 ft | 398 kts | 152° |
| 2026-04-24 08:14 | 51.72291 | -1.07204 | 24820 ft | 403 kts | 152° |
| 2026-04-24 08:15 | 51.69835 | -1.04961 | 25179 ft | 408 kts | 152° |
| 2026-04-24 08:15 | 51.67354 | -1.02698 | 25544 ft | 412 kts | 152° |
| 2026-04-24 08:15 | 51.64882 | -1.00445 | 25893 ft | 416 kts | 153° |
| 2026-04-24 08:15 | 51.62351 | -0.98142 | 26246 ft | 420 kts | 153° |
| 2026-04-24 08:16 | 51.59794 | -0.95818 | 26570 ft | 424 kts | 153° |
| 2026-04-24 08:16 | 51.57221 | -0.93481 | 26977 ft | 426 kts | 153° |
| 2026-04-24 08:16 | 51.54628 | -0.91130 | 27215 ft | 432 kts | 153° |
| 2026-04-24 08:16 | 51.51990 | -0.88743 | 27483 ft | 437 kts | 153° |
| 2026-04-24 08:17 | 51.49330 | -0.86338 | 27849 ft | 440 kts | 153° |
| 2026-04-24 08:17 | 51.46653 | -0.83921 | 28193 ft | 443 kts | 154° |
| 2026-04-24 08:17 | 51.43956 | -0.81488 | 28502 ft | 447 kts | 154° |
| 2026-04-24 08:17 | 51.41235 | -0.79038 | 28799 ft | 450 kts | 154° |
| 2026-04-24 08:18 | 51.38492 | -0.76571 | 29098 ft | 454 kts | 154° |
| 2026-04-24 08:18 | 51.35727 | -0.74089 | 29398 ft | 457 kts | 154° |
| 2026-04-24 08:18 | 51.32941 | -0.71590 | 29647 ft | 461 kts | 154° |
| 2026-04-24 08:19 | 51.27267 | -0.66515 | 29966 ft | 472 kts | 154° |
| 2026-04-24 08:19 | 51.24396 | -0.63951 | 30308 ft | 474 kts | 154° |
| 2026-04-24 08:19 | 51.21510 | -0.61376 | 30567 ft | 476 kts | 154° |
| 2026-04-24 08:19 | 51.18614 | -0.58796 | 30879 ft | 477 kts | 154° |
| 2026-04-24 08:20 | 51.15721 | -0.56222 | 31279 ft | 475 kts | 154° |
| 2026-04-24 08:20 | 51.12842 | -0.53663 | 31686 ft | 473 kts | 154° |
| 2026-04-24 08:20 | 51.09970 | -0.51115 | 32049 ft | 472 kts | 154° |
| 2026-04-24 08:20 | 51.07098 | -0.48573 | 32365 ft | 472 kts | 154° |
| 2026-04-24 08:21 | 51.04232 | -0.46040 | 32698 ft | 472 kts | 154° |
| 2026-04-24 08:21 | 51.01364 | -0.43508 | 33067 ft | 471 kts | 154° |
| 2026-04-24 08:21 | 50.98501 | -0.40985 | 33420 ft | 470 kts | 154° |
| 2026-04-24 08:21 | 50.95642 | -0.38468 | 33744 ft | 470 kts | 154° |
| 2026-04-24 08:22 | 50.92785 | -0.35957 | 34059 ft | 469 kts | 154° |
| 2026-04-24 08:22 | 50.89930 | -0.33451 | 34391 ft | 469 kts | 154° |
| 2026-04-24 08:22 | 50.87081 | -0.30954 | 34678 ft | 467 kts | 154° |
| 2026-04-24 08:22 | 50.84249 | -0.28475 | 35078 ft | 463 kts | 154° |
| 2026-04-24 08:23 | 50.81440 | -0.26019 | 35464 ft | 460 kts | 154° |
| 2026-04-24 08:23 | 50.78645 | -0.23578 | 35775 ft | 458 kts | 154° |
| 2026-04-24 08:23 | 50.75853 | -0.21146 | 36011 ft | 458 kts | 154° |
| 2026-04-24 08:23 | 50.73064 | -0.18719 | 36288 ft | 457 kts | 154° |
| 2026-04-24 08:24 | 50.70284 | -0.16303 | 36585 ft | 455 kts | 154° |
| 2026-04-24 08:24 | 50.67523 | -0.13906 | 36895 ft | 453 kts | 154° |
| 2026-04-24 08:24 | 50.64761 | -0.11511 | 37160 ft | 452 kts | 154° |
| 2026-04-24 08:24 | 50.62020 | -0.09139 | 37350 ft | 450 kts | 154° |
| 2026-04-24 08:25 | 50.59267 | -0.06760 | 37317 ft | 452 kts | 154° |
| 2026-04-24 08:25 | 50.53799 | -0.02043 | 37326 ft | 450 kts | 154° |
| 2026-04-24 08:26 | 50.48317 | 0.02676 | 37329 ft | 448 kts | 154° |
| 2026-04-24 08:26 | 50.42854 | 0.07365 | 37326 ft | 447 kts | 154° |
| 2026-04-24 08:27 | 50.37406 | 0.12028 | 37322 ft | 445 kts | 154° |
| 2026-04-24 08:27 | 50.31969 | 0.16670 | 37320 ft | 445 kts | 154° |
| 2026-04-24 08:28 | 50.26539 | 0.21295 | 37321 ft | 445 kts | 154° |
| 2026-04-24 08:28 | 50.21097 | 0.25918 | 37320 ft | 446 kts | 154° |
| 2026-04-24 08:29 | 50.15818 | 0.31057 | 37317 ft | 448 kts | 148° |
| 2026-04-24 08:29 | 50.10637 | 0.36480 | 37314 ft | 449 kts | 148° |
| 2026-04-24 08:30 | 50.06315 | 0.40966 | 37316 ft | 450 kts | 148° |
| 2026-04-24 08:30 | 50.01077 | 0.46332 | 37316 ft | 451 kts | 149° |
| 2026-04-24 08:31 | 49.95831 | 0.51679 | 37288 ft | 452 kts | 148° |
| 2026-04-24 08:31 | 49.90566 | 0.57030 | 37305 ft | 452 kts | 148° |
| 2026-04-24 08:32 | 49.85315 | 0.62397 | 37299 ft | 453 kts | 146° |
| 2026-04-24 08:32 | 49.80362 | 0.68462 | 37306 ft | 454 kts | 142° |
| 2026-04-24 08:33 | 49.75502 | 0.74710 | 37291 ft | 454 kts | 142° |
| 2026-04-24 08:33 | 49.70626 | 0.80902 | 37294 ft | 453 kts | 142° |
| 2026-04-24 08:34 | 49.65735 | 0.87034 | 37282 ft | 453 kts | 142° |
| 2026-04-24 08:34 | 49.60844 | 0.93132 | 37277 ft | 451 kts | 142° |
| 2026-04-24 08:35 | 49.55965 | 0.99202 | 37264 ft | 450 kts | 142° |
| 2026-04-24 08:35 | 49.51093 | 1.05249 | 37261 ft | 449 kts | 142° |
| 2026-04-24 08:36 | 49.46229 | 1.11273 | 37263 ft | 449 kts | 142° |
| 2026-04-24 08:36 | 49.41373 | 1.17270 | 37265 ft | 448 kts | 142° |
| 2026-04-24 08:37 | 49.36511 | 1.23254 | 37270 ft | 448 kts | 142° |
| 2026-04-24 08:37 | 49.31644 | 1.29227 | 37265 ft | 448 kts | 142° |
| 2026-04-24 08:38 | 49.26777 | 1.35189 | 37262 ft | 448 kts | 141° |
| 2026-04-24 08:38 | 49.21914 | 1.41132 | 37266 ft | 447 kts | 142° |
| 2026-04-24 08:39 | 49.17055 | 1.47056 | 37259 ft | 446 kts | 142° |
| 2026-04-24 08:39 | 49.12208 | 1.52948 | 37261 ft | 445 kts | 142° |
| 2026-04-24 08:40 | 49.07364 | 1.58822 | 37266 ft | 444 kts | 142° |
| 2026-04-24 08:40 | 49.02559 | 1.64634 | 37260 ft | 443 kts | 141° |
| 2026-04-24 08:41 | 48.97730 | 1.70461 | 37263 ft | 443 kts | 141° |
| 2026-04-24 08:41 | 48.92902 | 1.76272 | 37254 ft | 442 kts | 142° |
| 2026-04-24 08:42 | 48.88086 | 1.82053 | 37261 ft | 440 kts | 142° |
| 2026-04-24 08:42 | 48.83294 | 1.87791 | 37233 ft | 438 kts | 142° |
| 2026-04-24 08:43 | 48.78513 | 1.93502 | 37235 ft | 436 kts | 142° |
| 2026-04-24 08:43 | 48.73759 | 1.99167 | 37239 ft | 434 kts | 143° |
| 2026-04-24 08:44 | 48.69021 | 2.04799 | 37230 ft | 432 kts | 143° |
| 2026-04-24 08:44 | 48.64296 | 2.10402 | 37239 ft | 431 kts | 143° |
| 2026-04-24 08:45 | 48.59584 | 2.15978 | 37239 ft | 430 kts | 142° |
| 2026-04-24 08:45 | 48.55000 | 2.21781 | 37245 ft | 430 kts | 136° |
| 2026-04-24 08:46 | 48.50805 | 2.28226 | 37248 ft | 430 kts | 135° |
| 2026-04-24 08:46 | 48.46629 | 2.34689 | 37259 ft | 430 kts | 136° |
| 2026-04-24 08:47 | 48.42418 | 2.41093 | 37245 ft | 430 kts | 136° |
| 2026-04-24 08:47 | 48.38190 | 2.47469 | 37248 ft | 430 kts | 136° |
| 2026-04-24 08:48 | 48.33959 | 2.53836 | 37240 ft | 430 kts | 136° |
| 2026-04-24 08:48 | 48.29712 | 2.60163 | 37238 ft | 430 kts | 140° |
| 2026-04-24 08:49 | 48.24756 | 2.65067 | 37230 ft | 427 kts | 156° |
| 2026-04-24 08:49 | 48.19352 | 2.68759 | 37232 ft | 427 kts | 153° |
| 2026-04-24 08:50 | 48.14152 | 2.73053 | 37239 ft | 427 kts | 151° |
| 2026-04-24 08:50 | 48.08937 | 2.77303 | 37226 ft | 427 kts | 152° |
| 2026-04-24 08:51 | 48.03556 | 2.81032 | 37226 ft | 426 kts | 157° |
| 2026-04-24 08:51 | 47.98073 | 2.84405 | 37228 ft | 426 kts | 158° |
| 2026-04-24 08:52 | 47.92596 | 2.87802 | 37213 ft | 426 kts | 157° |
| 2026-04-24 08:52 | 47.87133 | 2.91242 | 37220 ft | 427 kts | 157° |
| 2026-04-24 08:53 | 47.81666 | 2.94699 | 37208 ft | 427 kts | 156° |
| 2026-04-24 08:53 | 47.76200 | 2.98148 | 37223 ft | 427 kts | 156° |
| 2026-04-24 08:54 | 47.70735 | 3.01587 | 37205 ft | 426 kts | 156° |
| 2026-04-24 08:54 | 47.65275 | 3.05016 | 37197 ft | 426 kts | 156° |
| 2026-04-24 08:55 | 47.59822 | 3.08433 | 37199 ft | 425 kts | 156° |
| 2026-04-24 08:55 | 47.54378 | 3.11835 | 37203 ft | 424 kts | 156° |
| 2026-04-24 08:56 | 47.48948 | 3.15217 | 37194 ft | 424 kts | 156° |
| 2026-04-24 08:56 | 47.43517 | 3.18591 | 37196 ft | 423 kts | 156° |
| 2026-04-24 08:57 | 47.38091 | 3.21956 | 37189 ft | 423 kts | 156° |
| 2026-04-24 08:57 | 47.32669 | 3.25312 | 37197 ft | 422 kts | 156° |
| 2026-04-24 08:58 | 47.27246 | 3.28662 | 37187 ft | 423 kts | 156° |
| 2026-04-24 08:58 | 47.21858 | 3.31982 | 37182 ft | 422 kts | 157° |
| 2026-04-24 08:59 | 47.16403 | 3.35337 | 37180 ft | 422 kts | 157° |
| 2026-04-24 08:59 | 47.11021 | 3.38639 | 37183 ft | 422 kts | 157° |
| 2026-04-24 09:00 | 47.05611 | 3.41951 | 37181 ft | 422 kts | 157° |
| 2026-04-24 09:00 | 47.00197 | 3.45258 | 37179 ft | 421 kts | 157° |
| 2026-04-24 09:01 | 46.94786 | 3.48556 | 37182 ft | 421 kts | 157° |
| 2026-04-24 09:01 | 46.89373 | 3.51849 | 37175 ft | 421 kts | 157° |
| 2026-04-24 09:02 | 46.83956 | 3.55136 | 37179 ft | 422 kts | 157° |
| 2026-04-24 09:02 | 46.78533 | 3.58421 | 37178 ft | 422 kts | 157° |
| 2026-04-24 09:03 | 46.73254 | 3.62098 | 37154 ft | 422 kts | 141° |
| 2026-04-24 09:03 | 46.71213 | 3.65173 | 37186 ft | 423 kts | 127° |
| 2026-04-24 09:03 | 46.69728 | 3.68869 | 37169 ft | 426 kts | 113° |
| 2026-04-24 09:04 | 46.68189 | 3.77246 | 37180 ft | 430 kts | 105° |
| 2026-04-24 09:04 | 46.66851 | 3.85743 | 37173 ft | 431 kts | 106° |
| 2026-04-24 09:05 | 46.65409 | 3.94217 | 37177 ft | 431 kts | 107° |
| 2026-04-24 09:05 | 46.63937 | 4.02692 | 37177 ft | 432 kts | 107° |
| 2026-04-24 09:06 | 46.62459 | 4.11177 | 37171 ft | 433 kts | 107° |
| 2026-04-24 09:06 | 46.60980 | 4.19647 | 37176 ft | 432 kts | 107° |
| 2026-04-24 09:07 | 46.59495 | 4.28115 | 37179 ft | 432 kts | 107° |
| 2026-04-24 09:07 | 46.57260 | 4.40783 | 37176 ft | 430 kts | 107° |
| 2026-04-24 09:08 | 46.55769 | 4.49184 | 37168 ft | 429 kts | 107° |
| 2026-04-24 09:08 | 46.54284 | 4.57514 | 37183 ft | 428 kts | 107° |
| 2026-04-24 09:09 | 46.52786 | 4.65880 | 37186 ft | 428 kts | 107° |
| 2026-04-24 09:09 | 46.51283 | 4.74231 | 37180 ft | 427 kts | 107° |
| 2026-04-24 09:10 | 46.49776 | 4.82570 | 37186 ft | 427 kts | 107° |
| 2026-04-24 09:10 | 46.48263 | 4.90903 | 37186 ft | 427 kts | 107° |
| 2026-04-24 09:11 | 46.46747 | 4.99216 | 37187 ft | 427 kts | 107° |
| 2026-04-24 09:11 | 46.45224 | 5.07535 | 37182 ft | 427 kts | 107° |
| 2026-04-24 09:12 | 46.43693 | 5.15855 | 37188 ft | 427 kts | 107° |
| 2026-04-24 09:12 | 46.42156 | 5.24178 | 37190 ft | 428 kts | 107° |
| 2026-04-24 09:13 | 46.40613 | 5.32508 | 37172 ft | 428 kts | 107° |
| 2026-04-24 09:13 | 46.39063 | 5.40842 | 37191 ft | 429 kts | 107° |
| 2026-04-24 09:14 | 46.37508 | 5.49185 | 37183 ft | 429 kts | 107° |
| 2026-04-24 09:14 | 46.35952 | 5.57528 | 37180 ft | 429 kts | 107° |
| 2026-04-24 09:15 | 46.34391 | 5.65865 | 37181 ft | 430 kts | 107° |
| 2026-04-24 09:15 | 46.32821 | 5.74212 | 37205 ft | 429 kts | 107° |
| 2026-04-24 09:16 | 46.31511 | 5.81146 | 37198 ft | 430 kts | 107° |
| 2026-04-24 09:16 | 46.29930 | 5.89483 | 37201 ft | 430 kts | 107° |
| 2026-04-24 09:17 | 46.28345 | 5.97813 | 37213 ft | 430 kts | 107° |
| 2026-04-24 09:17 | 46.26748 | 6.06160 | 37207 ft | 431 kts | 107° |
| 2026-04-24 09:18 | 46.24253 | 6.13951 | 37217 ft | 428 kts | 126° |
| 2026-04-24 09:18 | 46.20278 | 6.20288 | 37227 ft | 426 kts | 137° |
| 2026-04-24 09:19 | 46.15888 | 6.26057 | 37218 ft | 427 kts | 138° |
| 2026-04-24 09:19 | 46.11495 | 6.31839 | 37210 ft | 428 kts | 137° |
| 2026-04-24 09:20 | 46.06379 | 6.38635 | 37207 ft | 428 kts | 137° |
| 2026-04-24 09:20 | 46.02749 | 6.43466 | 37211 ft | 428 kts | 137° |
| 2026-04-24 09:21 | 45.98377 | 6.49276 | 37197 ft | 428 kts | 137° |
| 2026-04-24 09:21 | 45.93998 | 6.55077 | 37192 ft | 428 kts | 137° |
| 2026-04-24 09:22 | 45.89620 | 6.60867 | 37188 ft | 428 kts | 137° |
| 2026-04-24 09:22 | 45.85235 | 6.66653 | 37180 ft | 428 kts | 137° |
| 2026-04-24 09:23 | 45.80850 | 6.72424 | 37191 ft | 428 kts | 137° |
| 2026-04-24 09:23 | 45.76486 | 6.78129 | 37181 ft | 427 kts | 137° |
| 2026-04-24 09:24 | 45.72091 | 6.83852 | 37195 ft | 427 kts | 137° |
| 2026-04-24 09:24 | 45.67693 | 6.89571 | 37181 ft | 427 kts | 137° |
| 2026-04-24 09:25 | 45.63293 | 6.95284 | 37179 ft | 427 kts | 137° |
| 2026-04-24 09:25 | 45.58889 | 7.00980 | 37181 ft | 427 kts | 137° |
| 2026-04-24 09:26 | 45.54465 | 7.06676 | 37172 ft | 428 kts | 137° |
| 2026-04-24 09:26 | 45.50049 | 7.12358 | 37174 ft | 428 kts | 137° |
| 2026-04-24 09:27 | 45.45619 | 7.18049 | 37164 ft | 429 kts | 137° |
| 2026-04-24 09:27 | 45.41179 | 7.23738 | 37161 ft | 430 kts | 137° |
| 2026-04-24 09:28 | 45.36732 | 7.29426 | 37170 ft | 430 kts | 137° |
| 2026-04-24 09:28 | 45.32277 | 7.35110 | 37175 ft | 430 kts | 137° |
| 2026-04-24 09:29 | 45.27821 | 7.40784 | 37170 ft | 431 kts | 137° |
| 2026-04-24 09:29 | 45.23358 | 7.46454 | 37165 ft | 430 kts | 137° |
| 2026-04-24 09:30 | 45.18173 | 7.53025 | 37124 ft | 430 kts | 137° |
| 2026-04-24 09:30 | 45.14433 | 7.57753 | 37128 ft | 429 kts | 137° |
| 2026-04-24 09:31 | 45.09977 | 7.63378 | 37131 ft | 429 kts | 137° |
| 2026-04-24 09:31 | 45.05517 | 7.68995 | 36980 ft | 432 kts | 137° |
| 2026-04-24 09:32 | 45.03263 | 7.71828 | 36705 ft | 433 kts | 137° |
| 2026-04-24 09:32 | 45.01046 | 7.74613 | 36458 ft | 431 kts | 137° |
| 2026-04-24 09:32 | 44.98776 | 7.77460 | 36194 ft | 430 kts | 137° |
| 2026-04-24 09:32 | 44.96567 | 7.80228 | 35948 ft | 430 kts | 137° |
| 2026-04-24 09:33 | 44.94305 | 7.83061 | 35700 ft | 430 kts | 137° |
| 2026-04-24 09:33 | 44.92066 | 7.85856 | 35452 ft | 430 kts | 137° |
| 2026-04-24 09:33 | 44.89842 | 7.88588 | 35213 ft | 430 kts | 137° |
| 2026-04-24 09:33 | 44.87577 | 7.91339 | 34963 ft | 430 kts | 137° |
| 2026-04-24 09:34 | 44.85308 | 7.94085 | 34737 ft | 430 kts | 137° |
| 2026-04-24 09:34 | 44.83039 | 7.96830 | 34504 ft | 430 kts | 137° |
| 2026-04-24 09:34 | 44.80769 | 7.99576 | 34272 ft | 430 kts | 137° |
| 2026-04-24 09:34 | 44.78498 | 8.02324 | 34016 ft | 430 kts | 137° |
| 2026-04-24 09:35 | 44.76231 | 8.05068 | 33747 ft | 430 kts | 137° |
| 2026-04-24 09:35 | 44.73972 | 8.07800 | 33474 ft | 429 kts | 137° |
| 2026-04-24 09:35 | 44.71713 | 8.10530 | 33206 ft | 427 kts | 137° |
| 2026-04-24 09:35 | 44.69464 | 8.13246 | 32951 ft | 425 kts | 137° |
| 2026-04-24 09:36 | 44.67226 | 8.15945 | 32686 ft | 423 kts | 137° |
| 2026-04-24 09:36 | 44.65002 | 8.18625 | 32430 ft | 420 kts | 137° |
| 2026-04-24 09:36 | 44.62792 | 8.21286 | 32168 ft | 417 kts | 137° |
| 2026-04-24 09:36 | 44.60596 | 8.23926 | 31909 ft | 414 kts | 137° |
| 2026-04-24 09:37 | 44.58414 | 8.26548 | 31652 ft | 412 kts | 137° |
| 2026-04-24 09:37 | 44.56247 | 8.29148 | 31413 ft | 409 kts | 137° |
| 2026-04-24 09:37 | 44.54088 | 8.31736 | 31167 ft | 407 kts | 137° |
| 2026-04-24 09:37 | 44.51943 | 8.34305 | 30867 ft | 403 kts | 137° |
| 2026-04-24 09:38 | 44.49822 | 8.36842 | 30511 ft | 399 kts | 136° |
| 2026-04-24 09:38 | 44.47718 | 8.39357 | 30091 ft | 396 kts | 136° |
| 2026-04-24 09:38 | 44.45630 | 8.41851 | 29626 ft | 393 kts | 136° |
| 2026-04-24 09:38 | 44.43560 | 8.44320 | 29228 ft | 389 kts | 136° |
| 2026-04-24 09:39 | 44.41511 | 8.46762 | 28817 ft | 385 kts | 136° |
| 2026-04-24 09:39 | 44.39485 | 8.49174 | 28399 ft | 382 kts | 136° |
| 2026-04-24 09:39 | 44.37468 | 8.51574 | 28005 ft | 378 kts | 136° |
| 2026-04-24 09:39 | 44.35479 | 8.53937 | 27605 ft | 374 kts | 136° |
| 2026-04-24 09:40 | 44.33506 | 8.56281 | 27199 ft | 371 kts | 136° |
| 2026-04-24 09:40 | 44.31546 | 8.58606 | 26805 ft | 368 kts | 136° |
| 2026-04-24 09:40 | 44.29599 | 8.60914 | 26384 ft | 366 kts | 136° |
| 2026-04-24 09:40 | 44.27665 | 8.63204 | 25993 ft | 363 kts | 136° |
| 2026-04-24 09:41 | 44.25769 | 8.65448 | 25621 ft | 361 kts | 136° |
| 2026-04-24 09:41 | 44.23857 | 8.67708 | 25234 ft | 359 kts | 136° |
| 2026-04-24 09:41 | 44.21956 | 8.69954 | 24846 ft | 357 kts | 136° |
| 2026-04-24 09:41 | 44.20064 | 8.72187 | 24482 ft | 356 kts | 136° |
| 2026-04-24 09:42 | 44.18178 | 8.74411 | 24081 ft | 355 kts | 136° |
| 2026-04-24 09:42 | 44.16298 | 8.76626 | 23683 ft | 353 kts | 136° |
| 2026-04-24 09:42 | 44.14423 | 8.78834 | 23233 ft | 352 kts | 136° |
| 2026-04-24 09:42 | 44.12561 | 8.81023 | 22828 ft | 350 kts | 136° |
| 2026-04-24 09:43 | 44.10708 | 8.83200 | 22442 ft | 347 kts | 136° |
| 2026-04-24 09:43 | 44.08869 | 8.85358 | 22065 ft | 345 kts | 136° |
| 2026-04-24 09:43 | 44.07104 | 8.87596 | 21511 ft | 344 kts | 127° |
| 2026-04-24 09:43 | 44.05718 | 8.90310 | 20890 ft | 345 kts | 119° |
| 2026-04-24 09:44 | 44.04466 | 8.93156 | 20450 ft | 344 kts | 118° |
| 2026-04-24 09:44 | 44.03225 | 8.95987 | 20075 ft | 342 kts | 119° |
| 2026-04-24 09:44 | 44.01991 | 8.98795 | 19699 ft | 339 kts | 119° |
| 2026-04-24 09:44 | 44.00760 | 9.01584 | 19305 ft | 338 kts | 119° |
| 2026-04-24 09:45 | 43.99532 | 9.04359 | 18918 ft | 336 kts | 119° |
| 2026-04-24 09:45 | 43.98309 | 9.07112 | 18560 ft | 335 kts | 120° |
| 2026-04-24 09:45 | 43.97086 | 9.09857 | 18139 ft | 333 kts | 119° |
| 2026-04-24 09:45 | 43.95868 | 9.12588 | 17696 ft | 332 kts | 119° |
| 2026-04-24 09:46 | 43.94652 | 9.15310 | 17253 ft | 332 kts | 119° |
| 2026-04-24 09:46 | 43.93453 | 9.17991 | 16823 ft | 331 kts | 119° |
| 2026-04-24 09:46 | 43.92239 | 9.20703 | 16395 ft | 330 kts | 119° |
| 2026-04-24 09:46 | 43.91027 | 9.23408 | 15971 ft | 330 kts | 119° |
| 2026-04-24 09:47 | 43.89816 | 9.26107 | 15552 ft | 329 kts | 119° |
| 2026-04-24 09:47 | 43.88606 | 9.28801 | 15146 ft | 329 kts | 119° |
| 2026-04-24 09:47 | 43.87399 | 9.31487 | 14751 ft | 329 kts | 119° |
| 2026-04-24 09:47 | 43.86190 | 9.34172 | 14356 ft | 328 kts | 119° |
| 2026-04-24 09:48 | 43.84983 | 9.36854 | 13965 ft | 328 kts | 119° |
| 2026-04-24 09:48 | 43.83776 | 9.39531 | 13548 ft | 327 kts | 119° |
| 2026-04-24 09:48 | 43.82575 | 9.42193 | 13198 ft | 324 kts | 119° |
| 2026-04-24 09:48 | 43.81382 | 9.44833 | 12799 ft | 323 kts | 119° |
| 2026-04-24 09:49 | 43.80776 | 9.46175 | 12609 ft | 322 kts | 119° |
| 2026-04-24 09:49 | 43.80244 | 9.47350 | 12430 ft | 322 kts | 120° |
| 2026-04-24 09:49 | 43.79058 | 9.49971 | 12044 ft | 321 kts | 120° |
| 2026-04-24 09:49 | 43.77874 | 9.52587 | 11674 ft | 320 kts | 120° |
| 2026-04-24 09:50 | 43.76694 | 9.55191 | 11305 ft | 319 kts | 120° |
| 2026-04-24 09:50 | 43.75517 | 9.57786 | 10933 ft | 318 kts | 120° |
| 2026-04-24 09:50 | 43.74341 | 9.60376 | 10584 ft | 317 kts | 120° |
| 2026-04-24 09:50 | 43.73179 | 9.62932 | 10404 ft | 309 kts | 120° |
| 2026-04-24 09:51 | 43.72055 | 9.65400 | 10317 ft | 299 kts | 120° |
| 2026-04-24 09:51 | 43.70956 | 9.67814 | 10093 ft | 295 kts | 120° |
| 2026-04-24 09:51 | 43.69862 | 9.70217 | 9744 ft | 295 kts | 120° |
| 2026-04-24 09:51 | 43.68771 | 9.72613 | 9419 ft | 294 kts | 120° |
| 2026-04-24 09:52 | 43.67685 | 9.74994 | 9120 ft | 292 kts | 120° |
| 2026-04-24 09:52 | 43.66605 | 9.77359 | 8817 ft | 290 kts | 120° |
| 2026-04-24 09:52 | 43.65531 | 9.79708 | 8515 ft | 289 kts | 121° |
| 2026-04-24 09:52 | 43.64461 | 9.82050 | 8212 ft | 288 kts | 121° |
| 2026-04-24 09:53 | 43.63395 | 9.84378 | 7923 ft | 286 kts | 121° |
| 2026-04-24 09:53 | 43.62333 | 9.86696 | 7621 ft | 285 kts | 121° |
| 2026-04-24 09:53 | 43.61274 | 9.89006 | 7331 ft | 284 kts | 121° |
| 2026-04-24 09:53 | 43.60220 | 9.91302 | 7037 ft | 283 kts | 121° |
| 2026-04-24 09:54 | 43.59173 | 9.93585 | 6809 ft | 279 kts | 121° |
| 2026-04-24 09:54 | 43.58140 | 9.95831 | 6565 ft | 276 kts | 122° |
| 2026-04-24 09:54 | 43.57112 | 9.98067 | 6241 ft | 276 kts | 122° |
| 2026-04-24 09:54 | 43.56085 | 10.00299 | 5935 ft | 275 kts | 122° |
| 2026-04-24 09:55 | 43.55063 | 10.02520 | 5644 ft | 274 kts | 123° |
| 2026-04-24 09:55 | 43.54044 | 10.04729 | 5372 ft | 272 kts | 123° |
| 2026-04-24 09:55 | 43.53042 | 10.06905 | 5251 ft | 264 kts | 123° |
| 2026-04-24 09:55 | 43.52077 | 10.08996 | 5176 ft | 254 kts | 123° |
| 2026-04-24 09:56 | 43.51153 | 10.10996 | 5049 ft | 248 kts | 123° |
| 2026-04-24 09:56 | 43.50229 | 10.12994 | 4808 ft | 247 kts | 123° |
| 2026-04-24 09:56 | 43.49305 | 10.14988 | 4515 ft | 247 kts | 123° |
| 2026-04-24 09:56 | 43.48586 | 10.17116 | 4231 ft | 247 kts | 98° |
| 2026-04-24 09:57 | 43.48876 | 10.19362 | 4161 ft | 238 kts | 59° |
| 2026-04-24 09:57 | 43.50048 | 10.20840 | 4086 ft | 226 kts | 26° |
| 2026-04-24 09:57 | 43.51415 | 10.21892 | 3842 ft | 227 kts | 33° |
| 2026-04-24 09:57 | 43.52705 | 10.23167 | 3575 ft | 230 kts | 35° |
| 2026-04-24 09:58 | 43.53979 | 10.24497 | 3289 ft | 229 kts | 36° |
| 2026-04-24 09:58 | 43.55245 | 10.25817 | 2970 ft | 226 kts | 36° |
| 2026-04-24 09:58 | 43.56487 | 10.27107 | 2676 ft | 222 kts | 36° |
| 2026-04-24 09:58 | 43.57708 | 10.28373 | 2371 ft | 217 kts | 35° |
| 2026-04-24 09:59 | 43.58890 | 10.29598 | 2086 ft | 210 kts | 36° |
| 2026-04-24 09:59 | 43.60053 | 10.30802 | 1756 ft | 206 kts | 36° |
| 2026-04-24 09:59 | 43.61158 | 10.31954 | 1544 ft | 192 kts | 35° |
| 2026-04-24 09:59 | 43.62196 | 10.33026 | 1296 ft | 181 kts | 36° |
| 2026-04-24 10:00 | 43.63168 | 10.34035 | 1088 ft | 169 kts | 36° |
| 2026-04-24 10:00 | 43.64072 | 10.34970 | 864 ft | 156 kts | 36° |
| 2026-04-24 10:00 | 43.64928 | 10.35866 | 651 ft | 151 kts | 36° |
| 2026-04-24 10:00 | 43.65765 | 10.36732 | 458 ft | 148 kts | 36° |
| 2026-04-24 10:01 | 43.66595 | 10.37581 | 267 ft | 149 kts | 35° |
| 2026-04-24 10:01 | 43.67428 | 10.38449 | 69 ft | 152 kts | 36° |
| 2026-04-24 10:01 | 43.68234 | 10.39281 | 17 ft | 126 kts | 36° |
| 2026-04-24 10:01 | 43.68805 | 10.39868 | 17 ft | 91 kts | 37° |
| 2026-04-24 10:02 | 43.69122 | 10.40195 | 19 ft | 29 kts | 37° |
| 2026-04-24 10:02 | 43.69242 | 10.40305 | 19 ft | 11 kts | 8° |
| 2026-04-24 10:02 | 43.69305 | 10.40248 | 17 ft | 12 kts | 308° |
| 2026-04-24 10:02 | 43.69355 | 10.40158 | 21 ft | 12 kts | 308° |
| 2026-04-24 10:03 | 43.69419 | 10.40099 | 22 ft | 12 kts | 352° |
| 2026-04-24 10:03 | 43.69515 | 10.40079 | 15 ft | 14 kts | 352° |
| 2026-04-24 10:03 | 43.69601 | 10.40062 | 14 ft | 11 kts | 350° |
| 2026-04-24 10:03 | 43.69657 | 10.40051 | 14 ft | 6 kts | 348° |
| 2026-04-24 10:04 | 43.69682 | 10.40017 | 14 ft | 4 kts | 292° |
| 2026-04-24 10:04 | 43.69689 | 10.39973 | 15 ft | 6 kts | 280° |
| 2026-04-24 10:04 | 43.69695 | 10.39927 | 14 ft | 3 kts | 280° |
| 2026-04-24 10:04 | 43.69698 | 10.39913 | 14 ft | 2 kts | 294° |
| 2026-04-24 10:05 | 43.69726 | 10.39906 | 14 ft | 6 kts | 5° |
| 2026-04-24 10:05 | 43.69755 | 10.39912 | 14 ft | 5 kts | 9° |
| 2026-04-24 10:05 | 43.69763 | 10.39914 | 14 ft | 0 kts | 9° |